sensor_id;sensor_type;location;lat;lon;timestamp;temperature;humidity
75738;DHT22;64356;45.638;13.764;2023-11-21T00:00:33;19.40;62.80
75738;DHT22;64356;45.638;13.764;2023-11-21T00:02:59;19.40;62.50
75738;DHT22;64356;45.638;13.764;2023-11-21T00:05:24;19.40;62.50
75738;DHT22;64356;45.638;13.764;2023-11-21T00:07:50;19.40;63.30
75738;DHT22;64356;45.638;13.764;2023-11-21T00:10:16;19.40;63.10
75738;DHT22;64356;45.638;13.764;2023-11-21T00:12:42;19.40;63.00
75738;DHT22;64356;45.638;13.764;2023-11-21T00:15:08;19.40;62.90
75738;DHT22;64356;45.638;13.764;2023-11-21T00:17:37;19.40;63.40
75738;DHT22;64356;45.638;13.764;2023-11-21T00:20:03;19.40;63.30
75738;DHT22;64356;45.638;13.764;2023-11-21T00:22:34;19.40;63.30
75738;DHT22;64356;45.638;13.764;2023-11-21T00:25:00;19.40;63.20
75738;DHT22;64356;45.638;13.764;2023-11-21T00:27:26;19.40;63.10
75738;DHT22;64356;45.638;13.764;2023-11-21T00:29:52;19.40;63.50
75738;DHT22;64356;45.638;13.764;2023-11-21T00:32:17;19.40;63.30
75738;DHT22;64356;45.638;13.764;2023-11-21T00:34:43;19.40;63.20
75738;DHT22;64356;45.638;13.764;2023-11-21T00:37:09;19.40;63.40
75738;DHT22;64356;45.638;13.764;2023-11-21T00:39:34;19.40;63.50
75738;DHT22;64356;45.638;13.764;2023-11-21T00:42:00;19.30;63.30
75738;DHT22;64356;45.638;13.764;2023-11-21T00:44:26;19.30;63.30
75738;DHT22;64356;45.638;13.764;2023-11-21T00:46:51;19.40;63.70
75738;DHT22;64356;45.638;13.764;2023-11-21T00:49:17;19.30;63.80
75738;DHT22;64356;45.638;13.764;2023-11-21T00:51:42;19.40;63.60
75738;DHT22;64356;45.638;13.764;2023-11-21T00:54:08;19.40;64.00
75738;DHT22;64356;45.638;13.764;2023-11-21T00:56:33;19.30;63.40
75738;DHT22;64356;45.638;13.764;2023-11-21T00:58:59;19.30;63.30
75738;DHT22;64356;45.638;13.764;2023-11-21T01:01:24;19.30;63.00
75738;DHT22;64356;45.638;13.764;2023-11-21T01:03:50;19.30;63.20
75738;DHT22;64356;45.638;13.764;2023-11-21T01:06:16;19.30;63.30
75738;DHT22;64356;45.638;13.764;2023-11-21T01:08:43;19.30;63.40
75738;DHT22;64356;45.638;13.764;2023-11-21T01:11:09;19.30;63.30
75738;DHT22;64356;45.638;13.764;2023-11-21T01:13:37;19.30;63.10
75738;DHT22;64356;45.638;13.764;2023-11-21T01:16:03;19.30;63.20
75738;DHT22;64356;45.638;13.764;2023-11-21T01:18:29;19.30;63.40
75738;DHT22;64356;45.638;13.764;2023-11-21T01:20:54;19.30;63.20
75738;DHT22;64356;45.638;13.764;2023-11-21T01:23:20;19.30;63.20
75738;DHT22;64356;45.638;13.764;2023-11-21T01:25:45;19.30;63.50
75738;DHT22;64356;45.638;13.764;2023-11-21T01:28:11;19.30;63.30
75738;DHT22;64356;45.638;13.764;2023-11-21T01:30:37;19.30;63.70
75738;DHT22;64356;45.638;13.764;2023-11-21T01:33:02;19.30;62.90
75738;DHT22;64356;45.638;13.764;2023-11-21T01:35:28;19.30;63.00
75738;DHT22;64356;45.638;13.764;2023-11-21T01:37:54;19.30;62.80
75738;DHT22;64356;45.638;13.764;2023-11-21T01:40:20;19.30;62.90
75738;DHT22;64356;45.638;13.764;2023-11-21T01:42:46;19.30;62.90
75738;DHT22;64356;45.638;13.764;2023-11-21T01:45:12;19.30;62.90
75738;DHT22;64356;45.638;13.764;2023-11-21T01:47:38;19.30;62.80
75738;DHT22;64356;45.638;13.764;2023-11-21T01:50:07;19.30;62.70
75738;DHT22;64356;45.638;13.764;2023-11-21T01:52:33;19.30;62.40
75738;DHT22;64356;45.638;13.764;2023-11-21T01:55:00;19.20;62.10
75738;DHT22;64356;45.638;13.764;2023-11-21T01:57:25;19.30;62.20
75738;DHT22;64356;45.638;13.764;2023-11-21T01:59:51;19.20;62.30
75738;DHT22;64356;45.638;13.764;2023-11-21T02:02:18;19.30;62.80
75738;DHT22;64356;45.638;13.764;2023-11-21T02:04:44;19.30;62.90
75738;DHT22;64356;45.638;13.764;2023-11-21T02:07:09;19.20;62.80
75738;DHT22;64356;45.638;13.764;2023-11-21T02:09:35;19.20;62.70
75738;DHT22;64356;45.638;13.764;2023-11-21T02:12:03;19.20;62.40
75738;DHT22;64356;45.638;13.764;2023-11-21T02:14:30;19.20;62.40
75738;DHT22;64356;45.638;13.764;2023-11-21T02:16:56;19.20;62.50
75738;DHT22;64356;45.638;13.764;2023-11-21T02:19:22;19.20;62.50
75738;DHT22;64356;45.638;13.764;2023-11-21T02:21:53;19.20;62.30
75738;DHT22;64356;45.638;13.764;2023-11-21T02:24:19;19.20;62.40
75738;DHT22;64356;45.638;13.764;2023-11-21T02:26:45;19.20;62.40
75738;DHT22;64356;45.638;13.764;2023-11-21T02:29:11;19.20;62.20
75738;DHT22;64356;45.638;13.764;2023-11-21T02:31:38;19.20;62.10
75738;DHT22;64356;45.638;13.764;2023-11-21T02:34:16;19.20;62.30
75738;DHT22;64356;45.638;13.764;2023-11-21T02:36:45;19.20;62.40
75738;DHT22;64356;45.638;13.764;2023-11-21T02:39:10;19.20;62.30
75738;DHT22;64356;45.638;13.764;2023-11-21T02:41:39;19.20;62.30
75738;DHT22;64356;45.638;13.764;2023-11-21T02:44:05;19.20;62.70
75738;DHT22;64356;45.638;13.764;2023-11-21T02:46:32;19.20;62.70
75738;DHT22;64356;45.638;13.764;2023-11-21T02:48:59;19.20;62.90
75738;DHT22;64356;45.638;13.764;2023-11-21T02:51:25;19.20;63.40
75738;DHT22;64356;45.638;13.764;2023-11-21T02:53:50;19.20;63.60
75738;DHT22;64356;45.638;13.764;2023-11-21T02:56:16;19.20;63.10
75738;DHT22;64356;45.638;13.764;2023-11-21T02:58:43;19.20;63.00
75738;DHT22;64356;45.638;13.764;2023-11-21T03:01:09;19.20;63.30
75738;DHT22;64356;45.638;13.764;2023-11-21T03:03:34;19.20;63.60
75738;DHT22;64356;45.638;13.764;2023-11-21T03:06:02;19.20;63.40
75738;DHT22;64356;45.638;13.764;2023-11-21T03:08:28;19.20;63.50
75738;DHT22;64356;45.638;13.764;2023-11-21T03:10:53;19.20;63.40
75738;DHT22;64356;45.638;13.764;2023-11-21T03:13:19;19.20;63.10
75738;DHT22;64356;45.638;13.764;2023-11-21T03:15:44;19.10;63.00
75738;DHT22;64356;45.638;13.764;2023-11-21T03:18:10;19.10;63.10
75738;DHT22;64356;45.638;13.764;2023-11-21T03:20:35;19.10;63.60
75738;DHT22;64356;45.638;13.764;2023-11-21T03:23:01;19.10;63.50
75738;DHT22;64356;45.638;13.764;2023-11-21T03:25:27;19.10;63.60
75738;DHT22;64356;45.638;13.764;2023-11-21T03:27:52;19.10;63.40
75738;DHT22;64356;45.638;13.764;2023-11-21T03:30:18;19.10;63.60
75738;DHT22;64356;45.638;13.764;2023-11-21T03:32:44;19.10;63.60
75738;DHT22;64356;45.638;13.764;2023-11-21T03:35:10;19.10;63.70
75738;DHT22;64356;45.638;13.764;2023-11-21T03:37:35;19.20;63.70
75738;DHT22;64356;45.638;13.764;2023-11-21T03:40:03;19.10;63.70
75738;DHT22;64356;45.638;13.764;2023-11-21T03:42:29;19.10;63.70
75738;DHT22;64356;45.638;13.764;2023-11-21T03:44:55;19.10;63.60
75738;DHT22;64356;45.638;13.764;2023-11-21T03:47:20;19.10;63.50
75738;DHT22;64356;45.638;13.764;2023-11-21T03:49:46;19.10;63.50
75738;DHT22;64356;45.638;13.764;2023-11-21T03:52:11;19.10;63.60
75738;DHT22;64356;45.638;13.764;2023-11-21T03:54:37;19.10;63.70
75738;DHT22;64356;45.638;13.764;2023-11-21T03:57:03;19.10;63.60
75738;DHT22;64356;45.638;13.764;2023-11-21T03:59:28;19.10;63.60
75738;DHT22;64356;45.638;13.764;2023-11-21T04:01:57;19.10;63.30
75738;DHT22;64356;45.638;13.764;2023-11-21T04:04:23;19.10;63.30
75738;DHT22;64356;45.638;13.764;2023-11-21T04:06:48;19.10;63.30
75738;DHT22;64356;45.638;13.764;2023-11-21T04:09:14;19.10;63.50
75738;DHT22;64356;45.638;13.764;2023-11-21T04:11:39;19.10;63.60
75738;DHT22;64356;45.638;13.764;2023-11-21T04:14:05;19.10;63.50
75738;DHT22;64356;45.638;13.764;2023-11-21T04:16:30;19.10;63.40
75738;DHT22;64356;45.638;13.764;2023-11-21T04:18:56;19.10;63.40
75738;DHT22;64356;45.638;13.764;2023-11-21T04:21:22;19.10;63.40
75738;DHT22;64356;45.638;13.764;2023-11-21T04:23:49;19.10;63.40
75738;DHT22;64356;45.638;13.764;2023-11-21T04:26:15;19.10;63.50
75738;DHT22;64356;45.638;13.764;2023-11-21T04:28:40;19.20;63.60
75738;DHT22;64356;45.638;13.764;2023-11-21T04:31:06;19.50;62.50
75738;DHT22;64356;45.638;13.764;2023-11-21T04:33:32;19.80;61.20
75738;DHT22;64356;45.638;13.764;2023-11-21T04:35:58;20.10;60.10
75738;DHT22;64356;45.638;13.764;2023-11-21T04:38:23;20.30;59.80
75738;DHT22;64356;45.638;13.764;2023-11-21T04:40:49;20.40;59.30
75738;DHT22;64356;45.638;13.764;2023-11-21T04:43:14;20.50;58.80
75738;DHT22;64356;45.638;13.764;2023-11-21T04:45:40;20.50;58.90
75738;DHT22;64356;45.638;13.764;2023-11-21T04:48:07;20.60;58.80
75738;DHT22;64356;45.638;13.764;2023-11-21T04:50:33;20.60;58.60
75738;DHT22;64356;45.638;13.764;2023-11-21T04:52:59;20.60;58.30
75738;DHT22;64356;45.638;13.764;2023-11-21T04:55:25;20.70;58.20
75738;DHT22;64356;45.638;13.764;2023-11-21T04:57:53;20.70;58.20
75738;DHT22;64356;45.638;13.764;2023-11-21T05:00:19;20.80;58.30
75738;DHT22;64356;45.638;13.764;2023-11-21T05:02:46;20.80;58.00
75738;DHT22;64356;45.638;13.764;2023-11-21T05:05:12;20.80;58.00
75738;DHT22;64356;45.638;13.764;2023-11-21T05:07:38;20.70;58.10
75738;DHT22;64356;45.638;13.764;2023-11-21T05:10:07;20.70;58.20
75738;DHT22;64356;45.638;13.764;2023-11-21T05:12:36;20.70;58.20
75738;DHT22;64356;45.638;13.764;2023-11-21T05:15:03;20.70;58.40
75738;DHT22;64356;45.638;13.764;2023-11-21T05:17:33;20.60;58.30
75738;DHT22;64356;45.638;13.764;2023-11-21T05:19:59;20.70;58.00
75738;DHT22;64356;45.638;13.764;2023-11-21T05:22:29;20.90;57.50
75738;DHT22;64356;45.638;13.764;2023-11-21T05:24:54;21.10;57.10
75738;DHT22;64356;45.638;13.764;2023-11-21T05:27:20;21.20;56.60
75738;DHT22;64356;45.638;13.764;2023-11-21T05:29:45;21.40;56.40
75738;DHT22;64356;45.638;13.764;2023-11-21T05:32:11;21.50;56.00
75738;DHT22;64356;45.638;13.764;2023-11-21T05:34:36;21.60;55.60
75738;DHT22;64356;45.638;13.764;2023-11-21T05:37:02;21.70;55.30
75738;DHT22;64356;45.638;13.764;2023-11-21T05:39:27;21.80;54.80
75738;DHT22;64356;45.638;13.764;2023-11-21T05:41:53;21.90;54.80
75738;DHT22;64356;45.638;13.764;2023-11-21T05:44:19;22.00;54.60
75738;DHT22;64356;45.638;13.764;2023-11-21T05:46:44;22.10;54.20
75738;DHT22;64356;45.638;13.764;2023-11-21T05:49:10;22.10;54.00
75738;DHT22;64356;45.638;13.764;2023-11-21T05:51:36;22.20;53.50
75738;DHT22;64356;45.638;13.764;2023-11-21T05:54:02;22.30;53.60
75738;DHT22;64356;45.638;13.764;2023-11-21T05:56:28;22.30;53.40
75738;DHT22;64356;45.638;13.764;2023-11-21T05:58:53;22.40;53.10
75738;DHT22;64356;45.638;13.764;2023-11-21T06:01:19;22.40;53.50
75738;DHT22;64356;45.638;13.764;2023-11-21T06:03:44;22.40;53.30
75738;DHT22;64356;45.638;13.764;2023-11-21T06:06:11;22.40;53.50
75738;DHT22;64356;45.638;13.764;2023-11-21T06:08:36;22.40;53.50
75738;DHT22;64356;45.638;13.764;2023-11-21T06:11:02;22.40;53.40
75738;DHT22;64356;45.638;13.764;2023-11-21T06:13:27;22.40;53.00
75738;DHT22;64356;45.638;13.764;2023-11-21T06:15:53;22.40;53.00
75738;DHT22;64356;45.638;13.764;2023-11-21T06:18:19;22.40;52.90
75738;DHT22;64356;45.638;13.764;2023-11-21T06:20:45;22.40;53.30
75738;DHT22;64356;45.638;13.764;2023-11-21T06:23:10;22.40;53.00
75738;DHT22;64356;45.638;13.764;2023-11-21T06:25:36;22.40;52.70
75738;DHT22;64356;45.638;13.764;2023-11-21T06:28:02;22.50;52.00
75738;DHT22;64356;45.638;13.764;2023-11-21T06:30:28;22.40;50.50
75738;DHT22;64356;45.638;13.764;2023-11-21T06:32:54;22.40;49.70
75738;DHT22;64356;45.638;13.764;2023-11-21T06:35:20;22.30;48.50
75738;DHT22;64356;45.638;13.764;2023-11-21T06:37:46;22.30;49.30
75738;DHT22;64356;45.638;13.764;2023-11-21T06:40:13;22.30;49.80
75738;DHT22;64356;45.638;13.764;2023-11-21T06:42:40;22.40;50.30
75738;DHT22;64356;45.638;13.764;2023-11-21T06:45:06;22.40;50.80
75738;DHT22;64356;45.638;13.764;2023-11-21T06:47:32;22.50;50.40
75738;DHT22;64356;45.638;13.764;2023-11-21T06:49:58;22.50;48.50
75738;DHT22;64356;45.638;13.764;2023-11-21T06:52:24;22.40;49.00
75738;DHT22;64356;45.638;13.764;2023-11-21T06:54:49;22.30;49.70
75738;DHT22;64356;45.638;13.764;2023-11-21T06:57:15;22.20;47.20
75738;DHT22;64356;45.638;13.764;2023-11-21T06:59:41;22.10;47.00
75738;DHT22;64356;45.638;13.764;2023-11-21T07:02:07;21.80;45.50
75738;DHT22;64356;45.638;13.764;2023-11-21T07:04:32;21.50;45.30
75738;DHT22;64356;45.638;13.764;2023-11-21T07:06:58;21.30;47.30
75738;DHT22;64356;45.638;13.764;2023-11-21T07:09:24;21.40;47.30
75738;DHT22;64356;45.638;13.764;2023-11-21T07:11:52;21.50;48.20
75738;DHT22;64356;45.638;13.764;2023-11-21T07:14:17;21.70;48.60
75738;DHT22;64356;45.638;13.764;2023-11-21T07:16:45;21.90;49.30
75738;DHT22;64356;45.638;13.764;2023-11-21T07:19:10;22.00;49.30
75738;DHT22;64356;45.638;13.764;2023-11-21T07:21:37;22.20;50.50
75738;DHT22;64356;45.638;13.764;2023-11-21T07:24:03;22.30;53.40
75738;DHT22;64356;45.638;13.764;2023-11-21T07:26:29;22.30;54.40
75738;DHT22;64356;45.638;13.764;2023-11-21T07:28:55;22.30;54.70
75738;DHT22;64356;45.638;13.764;2023-11-21T07:31:21;22.40;54.00
75738;DHT22;64356;45.638;13.764;2023-11-21T07:33:47;22.40;53.30
75738;DHT22;64356;45.638;13.764;2023-11-21T07:36:13;22.50;52.80
75738;DHT22;64356;45.638;13.764;2023-11-21T07:38:39;22.50;51.70
75738;DHT22;64356;45.638;13.764;2023-11-21T07:41:05;22.60;51.20
75738;DHT22;64356;45.638;13.764;2023-11-21T07:43:34;22.70;50.70
75738;DHT22;64356;45.638;13.764;2023-11-21T07:46:03;22.80;50.50
75738;DHT22;64356;45.638;13.764;2023-11-21T07:48:30;22.80;50.10
75738;DHT22;64356;45.638;13.764;2023-11-21T07:50:56;22.90;50.00
75738;DHT22;64356;45.638;13.764;2023-11-21T07:53:21;23.00;50.30
75738;DHT22;64356;45.638;13.764;2023-11-21T07:55:47;23.00;49.90
75738;DHT22;64356;45.638;13.764;2023-11-21T07:58:12;23.00;50.90
75738;DHT22;64356;45.638;13.764;2023-11-21T08:00:38;23.10;50.40
75738;DHT22;64356;45.638;13.764;2023-11-21T08:03:05;23.10;50.10
75738;DHT22;64356;45.638;13.764;2023-11-21T08:05:31;23.10;49.80
75738;DHT22;64356;45.638;13.764;2023-11-21T08:07:56;23.10;49.80
75738;DHT22;64356;45.638;13.764;2023-11-21T08:10:22;23.10;49.50
75738;DHT22;64356;45.638;13.764;2023-11-21T08:12:48;23.10;49.60
75738;DHT22;64356;45.638;13.764;2023-11-21T08:15:15;23.20;50.10
75738;DHT22;64356;45.638;13.764;2023-11-21T08:17:41;23.10;50.00
75738;DHT22;64356;45.638;13.764;2023-11-21T08:20:07;23.20;49.90
75738;DHT22;64356;45.638;13.764;2023-11-21T08:22:33;23.20;49.80
75738;DHT22;64356;45.638;13.764;2023-11-21T08:24:59;23.10;49.90
75738;DHT22;64356;45.638;13.764;2023-11-21T08:27:25;23.20;49.70
75738;DHT22;64356;45.638;13.764;2023-11-21T08:29:51;23.10;49.60
75738;DHT22;64356;45.638;13.764;2023-11-21T08:32:17;23.20;49.80
75738;DHT22;64356;45.638;13.764;2023-11-21T08:34:43;23.10;49.80
75738;DHT22;64356;45.638;13.764;2023-11-21T08:37:10;23.20;49.80
75738;DHT22;64356;45.638;13.764;2023-11-21T08:39:39;23.10;49.70
75738;DHT22;64356;45.638;13.764;2023-11-21T08:42:04;23.20;49.80
75738;DHT22;64356;45.638;13.764;2023-11-21T08:44:30;23.10;49.90
75738;DHT22;64356;45.638;13.764;2023-11-21T08:46:57;23.20;49.60
75738;DHT22;64356;45.638;13.764;2023-11-21T08:49:22;23.20;50.00
75738;DHT22;64356;45.638;13.764;2023-11-21T08:51:48;23.10;50.80
75738;DHT22;64356;45.638;13.764;2023-11-21T08:54:14;23.10;51.80
75738;DHT22;64356;45.638;13.764;2023-11-21T08:56:41;23.20;51.70
75738;DHT22;64356;45.638;13.764;2023-11-21T08:59:08;23.20;51.50
75738;DHT22;64356;45.638;13.764;2023-11-21T09:01:34;23.20;51.90
75738;DHT22;64356;45.638;13.764;2023-11-21T09:03:59;23.20;52.10
75738;DHT22;64356;45.638;13.764;2023-11-21T09:06:25;23.20;52.40
75738;DHT22;64356;45.638;13.764;2023-11-21T09:08:50;23.20;52.90
75738;DHT22;64356;45.638;13.764;2023-11-21T09:11:16;23.20;53.00
75738;DHT22;64356;45.638;13.764;2023-11-21T09:13:42;23.20;54.40
75738;DHT22;64356;45.638;13.764;2023-11-21T09:16:08;23.20;53.70
75738;DHT22;64356;45.638;13.764;2023-11-21T09:18:33;23.20;52.80
75738;DHT22;64356;45.638;13.764;2023-11-21T09:20:59;23.20;52.90
75738;DHT22;64356;45.638;13.764;2023-11-21T09:23:25;23.20;53.10
75738;DHT22;64356;45.638;13.764;2023-11-21T09:25:50;23.30;52.80
75738;DHT22;64356;45.638;13.764;2023-11-21T09:28:17;23.20;52.70
75738;DHT22;64356;45.638;13.764;2023-11-21T09:30:43;23.20;52.80
75738;DHT22;64356;45.638;13.764;2023-11-21T09:33:09;23.20;53.50
75738;DHT22;64356;45.638;13.764;2023-11-21T09:35:38;23.20;53.10
75738;DHT22;64356;45.638;13.764;2023-11-21T09:38:04;23.20;53.80
75738;DHT22;64356;45.638;13.764;2023-11-21T09:40:36;23.20;53.10
75738;DHT22;64356;45.638;13.764;2023-11-21T09:43:05;23.20;52.80
75738;DHT22;64356;45.638;13.764;2023-11-21T09:45:35;23.30;52.90
75738;DHT22;64356;45.638;13.764;2023-11-21T09:48:02;23.30;52.10
75738;DHT22;64356;45.638;13.764;2023-11-21T09:50:28;23.30;51.90
75738;DHT22;64356;45.638;13.764;2023-11-21T09:55:30;23.30;51.40
75738;DHT22;64356;45.638;13.764;2023-11-21T09:58:01;23.30;51.50
75738;DHT22;64356;45.638;13.764;2023-11-21T10:00:28;23.40;52.30
75738;DHT22;64356;45.638;13.764;2023-11-21T10:02:56;23.50;52.50
75738;DHT22;64356;45.638;13.764;2023-11-21T10:05:23;23.50;52.60
75738;DHT22;64356;45.638;13.764;2023-11-21T10:07:52;23.50;52.30
75738;DHT22;64356;45.638;13.764;2023-11-21T10:10:19;23.50;51.60
75738;DHT22;64356;45.638;13.764;2023-11-21T10:12:51;23.50;52.00
75738;DHT22;64356;45.638;13.764;2023-11-21T10:15:20;23.50;51.30
75738;DHT22;64356;45.638;13.764;2023-11-21T10:17:46;23.40;51.50
75738;DHT22;64356;45.638;13.764;2023-11-21T10:20:14;23.50;51.50
75738;DHT22;64356;45.638;13.764;2023-11-21T10:22:40;23.50;51.00
75738;DHT22;64356;45.638;13.764;2023-11-21T10:25:07;23.40;51.30
75738;DHT22;64356;45.638;13.764;2023-11-21T10:27:34;23.40;51.60
75738;DHT22;64356;45.638;13.764;2023-11-21T10:30:02;23.50;51.40
75738;DHT22;64356;45.638;13.764;2023-11-21T10:32:29;23.50;51.50
75738;DHT22;64356;45.638;13.764;2023-11-21T10:34:58;23.50;50.00
75738;DHT22;64356;45.638;13.764;2023-11-21T10:37:34;23.50;50.50
75738;DHT22;64356;45.638;13.764;2023-11-21T10:40:00;23.40;50.10
75738;DHT22;64356;45.638;13.764;2023-11-21T10:42:26;23.40;50.10
75738;DHT22;64356;45.638;13.764;2023-11-21T10:44:52;23.50;49.60
75738;DHT22;64356;45.638;13.764;2023-11-21T10:47:19;23.50;49.10
75738;DHT22;64356;45.638;13.764;2023-11-21T10:49:44;23.40;49.00
75738;DHT22;64356;45.638;13.764;2023-11-21T10:52:12;23.40;48.80
75738;DHT22;64356;45.638;13.764;2023-11-21T10:54:43;23.40;49.70
75738;DHT22;64356;45.638;13.764;2023-11-21T10:57:09;23.50;51.50
75738;DHT22;64356;45.638;13.764;2023-11-21T10:59:35;23.50;51.20
75738;DHT22;64356;45.638;13.764;2023-11-21T11:02:01;23.50;51.30
75738;DHT22;64356;45.638;13.764;2023-11-21T11:04:28;23.50;51.70
75738;DHT22;64356;45.638;13.764;2023-11-21T11:06:54;23.60;52.30
75738;DHT22;64356;45.638;13.764;2023-11-21T11:09:21;23.70;51.90
75738;DHT22;64356;45.638;13.764;2023-11-21T11:11:47;23.70;51.70
75738;DHT22;64356;45.638;13.764;2023-11-21T11:14:14;23.70;51.20
75738;DHT22;64356;45.638;13.764;2023-11-21T11:16:40;23.70;51.80
75738;DHT22;64356;45.638;13.764;2023-11-21T11:19:09;23.70;51.00
75738;DHT22;64356;45.638;13.764;2023-11-21T11:24:17;23.60;49.30
75738;DHT22;64356;45.638;13.764;2023-11-21T11:26:56;23.60;49.70
75738;DHT22;64356;45.638;13.764;2023-11-21T11:29:25;23.60;49.70
75738;DHT22;64356;45.638;13.764;2023-11-21T11:35:12;23.60;49.80
75738;DHT22;64356;45.638;13.764;2023-11-21T11:37:29;23.60;49.10
75738;DHT22;64356;45.638;13.764;2023-11-21T11:39:55;23.60;48.40
75738;DHT22;64356;45.638;13.764;2023-11-21T11:42:21;23.60;48.90
75738;DHT22;64356;45.638;13.764;2023-11-21T11:44:48;23.50;48.50
75738;DHT22;64356;45.638;13.764;2023-11-21T11:47:21;23.50;48.70
75738;DHT22;64356;45.638;13.764;2023-11-21T11:49:56;23.50;48.50
75738;DHT22;64356;45.638;13.764;2023-11-21T11:55:23;23.50;48.70
75738;DHT22;64356;45.638;13.764;2023-11-21T11:57:49;23.50;48.20
75738;DHT22;64356;45.638;13.764;2023-11-21T12:02:53;23.50;48.60
75738;DHT22;64356;45.638;13.764;2023-11-21T12:05:19;23.50;48.60
75738;DHT22;64356;45.638;13.764;2023-11-21T12:10:14;23.50;47.80
75738;DHT22;64356;45.638;13.764;2023-11-21T12:12:43;23.50;48.50
75738;DHT22;64356;45.638;13.764;2023-11-21T12:15:10;23.50;48.20
75738;DHT22;64356;45.638;13.764;2023-11-21T12:17:37;23.50;47.80
75738;DHT22;64356;45.638;13.764;2023-11-21T12:20:04;23.50;47.70
75738;DHT22;64356;45.638;13.764;2023-11-21T12:22:32;23.50;47.10
75738;DHT22;64356;45.638;13.764;2023-11-21T12:24:58;23.50;47.10
75738;DHT22;64356;45.638;13.764;2023-11-21T12:27:23;23.50;46.60
75738;DHT22;64356;45.638;13.764;2023-11-21T12:29:49;23.50;46.90
75738;DHT22;64356;45.638;13.764;2023-11-21T12:32:14;23.50;46.70
75738;DHT22;64356;45.638;13.764;2023-11-21T12:34:43;23.50;46.20
75738;DHT22;64356;45.638;13.764;2023-11-21T12:37:08;23.50;45.80
75738;DHT22;64356;45.638;13.764;2023-11-21T12:39:34;23.50;45.80
75738;DHT22;64356;45.638;13.764;2023-11-21T12:42:00;23.50;45.50
75738;DHT22;64356;45.638;13.764;2023-11-21T12:44:25;23.50;45.40
75738;DHT22;64356;45.638;13.764;2023-11-21T12:46:51;23.50;45.00
75738;DHT22;64356;45.638;13.764;2023-11-21T12:49:17;23.50;45.00
75738;DHT22;64356;45.638;13.764;2023-11-21T12:51:46;23.40;45.10
75738;DHT22;64356;45.638;13.764;2023-11-21T12:54:12;23.40;43.40
75738;DHT22;64356;45.638;13.764;2023-11-21T12:56:38;23.40;41.80
75738;DHT22;64356;45.638;13.764;2023-11-21T12:59:04;23.10;40.20
75738;DHT22;64356;45.638;13.764;2023-11-21T13:01:30;22.90;43.70
75738;DHT22;64356;45.638;13.764;2023-11-21T13:03:57;22.90;45.10
75738;DHT22;64356;45.638;13.764;2023-11-21T13:06:23;22.90;45.10
75738;DHT22;64356;45.638;13.764;2023-11-21T13:08:51;22.90;45.70
75738;DHT22;64356;45.638;13.764;2023-11-21T13:11:17;23.00;45.60
75738;DHT22;64356;45.638;13.764;2023-11-21T13:13:43;23.00;45.40
75738;DHT22;64356;45.638;13.764;2023-11-21T13:16:09;23.10;45.30
75738;DHT22;64356;45.638;13.764;2023-11-21T13:18:35;23.10;45.00
75738;DHT22;64356;45.638;13.764;2023-11-21T13:21:01;23.10;44.90
75738;DHT22;64356;45.638;13.764;2023-11-21T13:23:28;23.10;44.80
75738;DHT22;64356;45.638;13.764;2023-11-21T13:25:54;23.10;44.50
75738;DHT22;64356;45.638;13.764;2023-11-21T13:28:20;23.10;44.40
75738;DHT22;64356;45.638;13.764;2023-11-21T13:30:47;23.10;44.10
75738;DHT22;64356;45.638;13.764;2023-11-21T13:33:13;23.10;44.70
75738;DHT22;64356;45.638;13.764;2023-11-21T13:35:43;23.20;44.20
75738;DHT22;64356;45.638;13.764;2023-11-21T13:38:14;23.20;43.90
75738;DHT22;64356;45.638;13.764;2023-11-21T13:40:40;23.20;44.80
75738;DHT22;64356;45.638;13.764;2023-11-21T13:43:15;23.20;50.10
75738;DHT22;64356;45.638;13.764;2023-11-21T13:45:41;23.20;50.00
75738;DHT22;64356;45.638;13.764;2023-11-21T13:48:07;23.20;48.60
75738;DHT22;64356;45.638;13.764;2023-11-21T13:50:45;23.10;50.90
75738;DHT22;64356;45.638;13.764;2023-11-21T13:53:23;23.10;50.70
75738;DHT22;64356;45.638;13.764;2023-11-21T13:55:51;23.10;50.50
75738;DHT22;64356;45.638;13.764;2023-11-21T13:58:23;23.10;49.40
75738;DHT22;64356;45.638;13.764;2023-11-21T14:00:57;23.00;50.70
75738;DHT22;64356;45.638;13.764;2023-11-21T14:03:23;23.00;50.90
75738;DHT22;64356;45.638;13.764;2023-11-21T14:05:57;22.90;49.50
75738;DHT22;64356;45.638;13.764;2023-11-21T14:08:25;22.90;50.70
75738;DHT22;64356;45.638;13.764;2023-11-21T14:10:54;22.90;51.30
75738;DHT22;64356;45.638;13.764;2023-11-21T14:13:23;22.90;52.50
75738;DHT22;64356;45.638;13.764;2023-11-21T14:15:50;22.90;51.50
75738;DHT22;64356;45.638;13.764;2023-11-21T14:18:26;22.80;50.80
75738;DHT22;64356;45.638;13.764;2023-11-21T14:21:16;22.60;46.50
75738;DHT22;64356;45.638;13.764;2023-11-21T14:23:42;22.50;46.60
75738;DHT22;64356;45.638;13.764;2023-11-21T14:26:08;22.50;49.60
75738;DHT22;64356;45.638;13.764;2023-11-21T14:28:34;22.50;50.40
75738;DHT22;64356;45.638;13.764;2023-11-21T14:31:01;22.50;50.80
75738;DHT22;64356;45.638;13.764;2023-11-21T14:33:28;22.50;50.20
75738;DHT22;64356;45.638;13.764;2023-11-21T14:35:53;22.50;49.10
75738;DHT22;64356;45.638;13.764;2023-11-21T14:38:19;22.60;49.80
75738;DHT22;64356;45.638;13.764;2023-11-21T14:40:45;22.60;49.40
75738;DHT22;64356;45.638;13.764;2023-11-21T14:43:12;22.70;49.40
75738;DHT22;64356;45.638;13.764;2023-11-21T14:45:38;22.70;50.90
75738;DHT22;64356;45.638;13.764;2023-11-21T14:48:04;22.70;50.50
75738;DHT22;64356;45.638;13.764;2023-11-21T14:50:30;22.70;51.50
75738;DHT22;64356;45.638;13.764;2023-11-21T14:53:14;22.80;51.80
75738;DHT22;64356;45.638;13.764;2023-11-21T14:55:40;22.80;51.40
75738;DHT22;64356;45.638;13.764;2023-11-21T14:58:11;22.80;51.10
75738;DHT22;64356;45.638;13.764;2023-11-21T15:00:41;22.80;51.00
75738;DHT22;64356;45.638;13.764;2023-11-21T15:03:15;22.80;50.60
75738;DHT22;64356;45.638;13.764;2023-11-21T15:06:00;22.80;51.20
75738;DHT22;64356;45.638;13.764;2023-11-21T15:08:44;22.90;50.70
75738;DHT22;64356;45.638;13.764;2023-11-21T15:11:10;22.90;49.20
75738;DHT22;64356;45.638;13.764;2023-11-21T15:13:40;22.80;50.50
75738;DHT22;64356;45.638;13.764;2023-11-21T15:16:07;22.90;48.30
75738;DHT22;64356;45.638;13.764;2023-11-21T15:18:33;22.90;47.80
75738;DHT22;64356;45.638;13.764;2023-11-21T15:21:01;23.00;46.70
75738;DHT22;64356;45.638;13.764;2023-11-21T15:23:26;23.10;45.80
75738;DHT22;64356;45.638;13.764;2023-11-21T15:25:53;23.10;45.40
75738;DHT22;64356;45.638;13.764;2023-11-21T15:28:19;23.10;45.50